Marshall Don Hunter Sr. Airport

About
Name: Marshall Don Hunter Sr. Airport
Identifier:  MLL/PADM
Owner:  State of Alaska DOT&PF - Northern Region
Public/Private:  Public
Local Time:  25. Aug 00:52 AKDT
Description: Marshall Don Hunter Sr. Airport is a state-owned public-use airport located two nautical miles southeast of the central business district of Marshall, a city in the Kusilvak Census Area of the U.S. state of Alaska.
Source: Wikipedia
Location
Runways
Identifier Length (m/ft) Surface
7/25 3,201/3,201 Gravel
Flights per Day
0 flights
Distance: 88km (54mi)
Punctuality
60% (0 flights per day delayed)
Delay Average: 171 minutes
Current Weather
 9 C (Humidity: 87%)
  6kt (11km/h / 6mph) from 330°
  16km (10 mi.)
 
 METAR PADM 250802Z AUTO 33006KT 10SM CLR 09/07 A2995 RMK AO2 SLP146 T00940072 400940094

Current Flights

Departures
Number Departure To Airline
Arrivals
Number Arrival From Airline

Current Delays

Departures
N/A
Arrivals
N/A

Destinations

Top Destinations
Airport Flights
per week
Seats
per week
  Anchorage (ANC) 0 8 0 1

Airlines & Planes

Top Airlines
Airline Flights
per Day
Seats
per Day
  Era Alaska 0 1
Top Plane Types
Model Flights Seats
Bombardier Dash 8-100 0.0/day 1/day 1.2333333333333334